sensor_id;sensor_type;location;lat;lon;timestamp;temperature;humidity
216;HTU21D;70668;48.81286795;9.14184224;2023-11-19T00:00:25;8.60;105.88
216;HTU21D;70668;48.81286795;9.14184224;2023-11-19T00:02:54;8.59;106.27
216;HTU21D;70668;48.81286795;9.14184224;2023-11-19T00:05:22;8.53;106.60
216;HTU21D;70668;48.81286795;9.14184224;2023-11-19T00:07:50;8.49;107.39
216;HTU21D;70668;48.81286795;9.14184224;2023-11-19T00:10:19;8.45;107.30
216;HTU21D;70668;48.81286795;9.14184224;2023-11-19T00:12:49;8.74;106.08
216;HTU21D;70668;48.81286795;9.14184224;2023-11-19T00:15:18;8.51;107.29
216;HTU21D;70668;48.81286795;9.14184224;2023-11-19T00:17:49;8.74;106.33
216;HTU21D;70668;48.81286795;9.14184224;2023-11-19T00:20:18;8.74;106.32
216;HTU21D;70668;48.81286795;9.14184224;2023-11-19T00:22:47;8.52;108.42
216;HTU21D;70668;48.81286795;9.14184224;2023-11-19T00:25:17;8.62;108.73
216;HTU21D;70668;48.81286795;9.14184224;2023-11-19T00:27:45;8.71;107.88
216;HTU21D;70668;48.81286795;9.14184224;2023-11-19T00:30:14;8.64;108.51
216;HTU21D;70668;48.81286795;9.14184224;2023-11-19T00:32:43;8.56;109.30
216;HTU21D;70668;48.81286795;9.14184224;2023-11-19T00:35:14;8.98;108.36
216;HTU21D;70668;48.81286795;9.14184224;2023-11-19T00:37:43;9.17;107.08
216;HTU21D;70668;48.81286795;9.14184224;2023-11-19T00:40:13;9.16;107.62
216;HTU21D;70668;48.81286795;9.14184224;2023-11-19T00:42:43;9.24;106.94
216;HTU21D;70668;48.81286795;9.14184224;2023-11-19T00:45:13;9.40;106.59
216;HTU21D;70668;48.81286795;9.14184224;2023-11-19T00:47:41;9.38;107.37
216;HTU21D;70668;48.81286795;9.14184224;2023-11-19T00:50:10;9.49;106.52
216;HTU21D;70668;48.81286795;9.14184224;2023-11-19T00:52:41;9.51;106.79
216;HTU21D;70668;48.81286795;9.14184224;2023-11-19T00:55:10;9.59;106.33
216;HTU21D;70668;48.81286795;9.14184224;2023-11-19T00:57:39;9.61;106.13
216;HTU21D;70668;48.81286795;9.14184224;2023-11-19T01:00:09;9.59;106.82
216;HTU21D;70668;48.81286795;9.14184224;2023-11-19T01:02:44;9.56;106.85
216;HTU21D;70668;48.81286795;9.14184224;2023-11-19T01:05:15;9.68;106.07
216;HTU21D;70668;48.81286795;9.14184224;2023-11-19T01:07:49;9.69;106.41
216;HTU21D;70668;48.81286795;9.14184224;2023-11-19T01:10:19;9.76;105.89
216;HTU21D;70668;48.81286795;9.14184224;2023-11-19T01:12:47;9.70;106.80
216;HTU21D;70668;48.81286795;9.14184224;2023-11-19T01:15:16;9.55;108.01
216;HTU21D;70668;48.81286795;9.14184224;2023-11-19T01:17:46;9.69;106.96
216;HTU21D;70668;48.81286795;9.14184224;2023-11-19T01:20:14;9.77;106.59
216;HTU21D;70668;48.81286795;9.14184224;2023-11-19T01:22:43;9.82;106.31
216;HTU21D;70668;48.81286795;9.14184224;2023-11-19T01:25:16;9.65;107.75
216;HTU21D;70668;48.81286795;9.14184224;2023-11-19T01:27:45;9.78;106.64
216;HTU21D;70668;48.81286795;9.14184224;2023-11-19T01:30:14;9.90;106.56
216;HTU21D;70668;48.81286795;9.14184224;2023-11-19T01:32:42;9.82;106.41
216;HTU21D;70668;48.81286795;9.14184224;2023-11-19T01:35:11;9.83;106.62
216;HTU21D;70668;48.81286795;9.14184224;2023-11-19T01:37:40;9.86;106.53
216;HTU21D;70668;48.81286795;9.14184224;2023-11-19T01:40:10;9.81;107.43
216;HTU21D;70668;48.81286795;9.14184224;2023-11-19T01:42:41;9.85;106.74
216;HTU21D;70668;48.81286795;9.14184224;2023-11-19T01:45:26;10.01;105.79
216;HTU21D;70668;48.81286795;9.14184224;2023-11-19T01:47:57;10.01;106.03
216;HTU21D;70668;48.81286795;9.14184224;2023-11-19T01:50:26;9.94;107.04
216;HTU21D;70668;48.81286795;9.14184224;2023-11-19T01:52:55;9.98;107.04
216;HTU21D;70668;48.81286795;9.14184224;2023-11-19T01:55:27;9.92;107.08
216;HTU21D;70668;48.81286795;9.14184224;2023-11-19T01:58:01;9.78;108.05
216;HTU21D;70668;48.81286795;9.14184224;2023-11-19T02:00:30;9.82;107.82
216;HTU21D;70668;48.81286795;9.14184224;2023-11-19T02:02:58;9.84;108.37
216;HTU21D;70668;48.81286795;9.14184224;2023-11-19T02:05:29;9.84;108.28
216;HTU21D;70668;48.81286795;9.14184224;2023-11-19T02:07:58;9.91;107.98
216;HTU21D;70668;48.81286795;9.14184224;2023-11-19T02:10:27;10.04;107.81
216;HTU21D;70668;48.81286795;9.14184224;2023-11-19T02:12:59;10.01;107.55
216;HTU21D;70668;48.81286795;9.14184224;2023-11-19T02:15:29;9.98;108.11
216;HTU21D;70668;48.81286795;9.14184224;2023-11-19T02:18:17;9.96;108.33
216;HTU21D;70668;48.81286795;9.14184224;2023-11-19T02:20:46;9.99;107.73
216;HTU21D;70668;48.81286795;9.14184224;2023-11-19T02:23:15;10.03;107.82
216;HTU21D;70668;48.81286795;9.14184224;2023-11-19T02:25:47;9.95;107.87
216;HTU21D;70668;48.81286795;9.14184224;2023-11-19T02:28:19;9.98;108.41
216;HTU21D;70668;48.81286795;9.14184224;2023-11-19T02:30:47;9.97;108.59
216;HTU21D;70668;48.81286795;9.14184224;2023-11-19T02:33:16;9.95;108.69
216;HTU21D;70668;48.81286795;9.14184224;2023-11-19T02:35:44;9.96;108.94
216;HTU21D;70668;48.81286795;9.14184224;2023-11-19T02:38:13;9.91;108.85
216;HTU21D;70668;48.81286795;9.14184224;2023-11-19T02:40:41;10.06;108.49
216;HTU21D;70668;48.81286795;9.14184224;2023-11-19T02:43:10;9.95;109.12
216;HTU21D;70668;48.81286795;9.14184224;2023-11-19T02:45:41;10.01;108.85
216;HTU21D;70668;48.81286795;9.14184224;2023-11-19T02:48:11;10.09;108.40
216;HTU21D;70668;48.81286795;9.14184224;2023-11-19T02:50:40;10.09;108.56
216;HTU21D;70668;48.81286795;9.14184224;2023-11-19T02:53:08;10.09;108.72
216;HTU21D;70668;48.81286795;9.14184224;2023-11-19T02:55:38;10.06;109.46
216;HTU21D;70668;48.81286795;9.14184224;2023-11-19T02:58:07;9.99;109.86
216;HTU21D;70668;48.81286795;9.14184224;2023-11-19T03:00:48;9.88;110.31
216;HTU21D;70668;48.81286795;9.14184224;2023-11-19T03:03:22;10.03;109.65
216;HTU21D;70668;48.81286795;9.14184224;2023-11-19T03:05:54;10.04;110.04
216;HTU21D;70668;48.81286795;9.14184224;2023-11-19T03:08:22;10.13;109.31
216;HTU21D;70668;48.81286795;9.14184224;2023-11-19T03:10:51;10.25;108.72
216;HTU21D;70668;48.81286795;9.14184224;2023-11-19T03:13:19;10.24;108.75
216;HTU21D;70668;48.81286795;9.14184224;2023-11-19T03:15:51;10.04;109.81
216;HTU21D;70668;48.81286795;9.14184224;2023-11-19T03:18:19;10.21;109.34
216;HTU21D;70668;48.81286795;9.14184224;2023-11-19T03:20:48;10.19;109.41
216;HTU21D;70668;48.81286795;9.14184224;2023-11-19T03:23:17;10.09;109.84
216;HTU21D;70668;48.81286795;9.14184224;2023-11-19T03:25:46;9.89;110.13
216;HTU21D;70668;48.81286795;9.14184224;2023-11-19T03:28:15;9.94;110.22
216;HTU21D;70668;48.81286795;9.14184224;2023-11-19T03:30:43;9.95;110.45
216;HTU21D;70668;48.81286795;9.14184224;2023-11-19T03:33:15;9.94;111.02
216;HTU21D;70668;48.81286795;9.14184224;2023-11-19T03:35:43;9.83;111.02
216;HTU21D;70668;48.81286795;9.14184224;2023-11-19T03:38:12;9.92;111.31
216;HTU21D;70668;48.81286795;9.14184224;2023-11-19T03:40:41;9.90;111.23
216;HTU21D;70668;48.81286795;9.14184224;2023-11-19T03:43:09;9.92;111.21
216;HTU21D;70668;48.81286795;9.14184224;2023-11-19T03:45:38;9.99;110.84
216;HTU21D;70668;48.81286795;9.14184224;2023-11-19T03:48:07;9.96;110.87
216;HTU21D;70668;48.81286795;9.14184224;2023-11-19T03:50:38;9.96;111.13
216;HTU21D;70668;48.81286795;9.14184224;2023-11-19T03:53:07;9.95;111.21
216;HTU21D;70668;48.81286795;9.14184224;2023-11-19T03:55:35;9.98;111.06
216;HTU21D;70668;48.81286795;9.14184224;2023-11-19T03:58:04;10.06;111.11
216;HTU21D;70668;48.81286795;9.14184224;2023-11-19T04:00:33;10.05;111.14
216;HTU21D;70668;48.81286795;9.14184224;2023-11-19T04:03:01;9.96;111.39
216;HTU21D;70668;48.81286795;9.14184224;2023-11-19T04:05:31;10.06;111.40
216;HTU21D;70668;48.81286795;9.14184224;2023-11-19T04:08:02;10.19;111.08
216;HTU21D;70668;48.81286795;9.14184224;2023-11-19T04:10:31;10.28;110.13
216;HTU21D;70668;48.81286795;9.14184224;2023-11-19T04:12:59;10.37;109.78
216;HTU21D;70668;48.81286795;9.14184224;2023-11-19T04:15:28;10.41;109.12
216;HTU21D;70668;48.81286795;9.14184224;2023-11-19T04:17:58;10.49;108.89
216;HTU21D;70668;48.81286795;9.14184224;2023-11-19T04:20:26;10.57;108.43
216;HTU21D;70668;48.81286795;9.14184224;2023-11-19T04:22:55;10.54;108.69
216;HTU21D;70668;48.81286795;9.14184224;2023-11-19T04:25:28;10.73;107.71
216;HTU21D;70668;48.81286795;9.14184224;2023-11-19T04:27:57;10.70;107.71
216;HTU21D;70668;48.81286795;9.14184224;2023-11-19T04:30:25;10.67;107.83
216;HTU21D;70668;48.81286795;9.14184224;2023-11-19T04:32:54;10.79;106.94
216;HTU21D;70668;48.81286795;9.14184224;2023-11-19T04:35:23;10.74;107.43
216;HTU21D;70668;48.81286795;9.14184224;2023-11-19T04:37:51;10.75;107.45
216;HTU21D;70668;48.81286795;9.14184224;2023-11-19T04:40:23;10.81;107.12
216;HTU21D;70668;48.81286795;9.14184224;2023-11-19T04:42:54;10.83;107.07
216;HTU21D;70668;48.81286795;9.14184224;2023-11-19T04:45:22;10.84;107.27
216;HTU21D;70668;48.81286795;9.14184224;2023-11-19T04:47:51;10.84;107.21
216;HTU21D;70668;48.81286795;9.14184224;2023-11-19T04:50:20;10.81;107.63
216;HTU21D;70668;48.81286795;9.14184224;2023-11-19T04:52:48;10.87;107.24
216;HTU21D;70668;48.81286795;9.14184224;2023-11-19T04:55:17;10.82;107.91
216;HTU21D;70668;48.81286795;9.14184224;2023-11-19T04:57:45;10.79;108.05
216;HTU21D;70668;48.81286795;9.14184224;2023-11-19T05:00:16;10.86;107.26
216;HTU21D;70668;48.81286795;9.14184224;2023-11-19T05:02:47;10.83;107.69
216;HTU21D;70668;48.81286795;9.14184224;2023-11-19T05:05:16;10.80;107.56
216;HTU21D;70668;48.81286795;9.14184224;2023-11-19T05:07:45;10.75;108.04
216;HTU21D;70668;48.81286795;9.14184224;2023-11-19T05:10:13;10.80;107.85
216;HTU21D;70668;48.81286795;9.14184224;2023-11-19T05:12:42;10.73;108.40
216;HTU21D;70668;48.81286795;9.14184224;2023-11-19T05:15:11;10.88;107.40
216;HTU21D;70668;48.81286795;9.14184224;2023-11-19T05:17:42;10.89;107.62
216;HTU21D;70668;48.81286795;9.14184224;2023-11-19T05:20:11;10.94;107.27
216;HTU21D;70668;48.81286795;9.14184224;2023-11-19T05:22:42;10.85;107.95
216;HTU21D;70668;48.81286795;9.14184224;2023-11-19T05:25:11;10.92;107.81
216;HTU21D;70668;48.81286795;9.14184224;2023-11-19T05:27:40;10.93;107.50
216;HTU21D;70668;48.81286795;9.14184224;2023-11-19T05:30:09;10.92;107.75
216;HTU21D;70668;48.81286795;9.14184224;2023-11-19T05:32:37;10.94;107.56
216;HTU21D;70668;48.81286795;9.14184224;2023-11-19T05:35:08;11.00;107.22
216;HTU21D;70668;48.81286795;9.14184224;2023-11-19T05:37:37;11.03;107.24
216;HTU21D;70668;48.81286795;9.14184224;2023-11-19T05:40:07;11.05;106.85
216;HTU21D;70668;48.81286795;9.14184224;2023-11-19T05:42:40;11.02;107.36
216;HTU21D;70668;48.81286795;9.14184224;2023-11-19T05:45:11;11.09;107.09
216;HTU21D;70668;48.81286795;9.14184224;2023-11-19T05:47:40;11.11;106.91
216;HTU21D;70668;48.81286795;9.14184224;2023-11-19T05:50:11;11.20;106.39
216;HTU21D;70668;48.81286795;9.14184224;2023-11-19T05:52:40;11.17;106.53
216;HTU21D;70668;48.81286795;9.14184224;2023-11-19T05:55:08;11.10;107.00
216;HTU21D;70668;48.81286795;9.14184224;2023-11-19T05:57:38;11.19;106.50
216;HTU21D;70668;48.81286795;9.14184224;2023-11-19T06:00:08;11.13;106.85
216;HTU21D;70668;48.81286795;9.14184224;2023-11-19T06:02:38;11.16;106.67
216;HTU21D;70668;48.81286795;9.14184224;2023-11-19T06:05:07;11.08;107.10
216;HTU21D;70668;48.81286795;9.14184224;2023-11-19T06:07:38;11.13;106.81
216;HTU21D;70668;48.81286795;9.14184224;2023-11-19T06:10:07;11.08;106.87
216;HTU21D;70668;48.81286795;9.14184224;2023-11-19T06:12:38;11.10;106.89
216;HTU21D;70668;48.81286795;9.14184224;2023-11-19T06:15:08;11.14;106.72
216;HTU21D;70668;48.81286795;9.14184224;2023-11-19T06:17:37;11.09;107.09
216;HTU21D;70668;48.81286795;9.14184224;2023-11-19T06:20:06;11.09;106.89
216;HTU21D;70668;48.81286795;9.14184224;2023-11-19T06:22:37;11.08;107.12
216;HTU21D;70668;48.81286795;9.14184224;2023-11-19T06:25:08;11.24;106.20
216;HTU21D;70668;48.81286795;9.14184224;2023-11-19T06:27:37;11.15;106.61
216;HTU21D;70668;48.81286795;9.14184224;2023-11-19T06:30:06;11.10;107.22
216;HTU21D;70668;48.81286795;9.14184224;2023-11-19T06:32:36;11.02;107.66
216;HTU21D;70668;48.81286795;9.14184224;2023-11-19T06:35:05;11.02;107.67
216;HTU21D;70668;48.81286795;9.14184224;2023-11-19T06:37:34;11.12;107.07
216;HTU21D;70668;48.81286795;9.14184224;2023-11-19T06:40:06;11.11;107.46
216;HTU21D;70668;48.81286795;9.14184224;2023-11-19T06:42:35;11.24;106.81
216;HTU21D;70668;48.81286795;9.14184224;2023-11-19T06:45:04;11.22;107.24
216;HTU21D;70668;48.81286795;9.14184224;2023-11-19T06:47:33;11.18;107.18
216;HTU21D;70668;48.81286795;9.14184224;2023-11-19T06:50:01;11.16;107.37
216;HTU21D;70668;48.81286795;9.14184224;2023-11-19T06:52:31;11.14;107.53
216;HTU21D;70668;48.81286795;9.14184224;2023-11-19T06:55:00;11.18;107.40
216;HTU21D;70668;48.81286795;9.14184224;2023-11-19T06:57:31;11.28;107.25
216;HTU21D;70668;48.81286795;9.14184224;2023-11-19T07:00:00;11.25;107.33
216;HTU21D;70668;48.81286795;9.14184224;2023-11-19T07:02:28;11.15;107.33
216;HTU21D;70668;48.81286795;9.14184224;2023-11-19T07:04:57;11.13;107.58
216;HTU21D;70668;48.81286795;9.14184224;2023-11-19T07:07:25;11.05;107.78
216;HTU21D;70668;48.81286795;9.14184224;2023-11-19T07:09:54;11.15;107.42
216;HTU21D;70668;48.81286795;9.14184224;2023-11-19T07:12:23;11.14;107.53
216;HTU21D;70668;48.81286795;9.14184224;2023-11-19T07:14:54;11.19;107.30
216;HTU21D;70668;48.81286795;9.14184224;2023-11-19T07:17:23;11.26;106.88
216;HTU21D;70668;48.81286795;9.14184224;2023-11-19T07:19:52;11.19;107.02
216;HTU21D;70668;48.81286795;9.14184224;2023-11-19T07:22:24;11.33;106.82
216;HTU21D;70668;48.81286795;9.14184224;2023-11-19T07:24:57;11.27;106.78
216;HTU21D;70668;48.81286795;9.14184224;2023-11-19T07:27:26;11.29;107.00
216;HTU21D;70668;48.81286795;9.14184224;2023-11-19T07:29:58;11.38;106.12
216;HTU21D;70668;48.81286795;9.14184224;2023-11-19T07:32:26;11.43;105.98
216;HTU21D;70668;48.81286795;9.14184224;2023-11-19T07:34:55;11.39;106.21
216;HTU21D;70668;48.81286795;9.14184224;2023-11-19T07:37:24;11.34;106.72
216;HTU21D;70668;48.81286795;9.14184224;2023-11-19T07:39:52;11.37;106.54
216;HTU21D;70668;48.81286795;9.14184224;2023-11-19T07:42:21;11.49;105.59
216;HTU21D;70668;48.81286795;9.14184224;2023-11-19T07:44:49;11.51;105.41
216;HTU21D;70668;48.81286795;9.14184224;2023-11-19T07:47:22;11.52;105.60
216;HTU21D;70668;48.81286795;9.14184224;2023-11-19T07:49:51;11.61;104.97
216;HTU21D;70668;48.81286795;9.14184224;2023-11-19T07:52:19;11.52;105.50
216;HTU21D;70668;48.81286795;9.14184224;2023-11-19T07:54:48;11.55;105.41
216;HTU21D;70668;48.81286795;9.14184224;2023-11-19T07:57:16;11.56;104.99
216;HTU21D;70668;48.81286795;9.14184224;2023-11-19T07:59:46;11.57;105.11
216;HTU21D;70668;48.81286795;9.14184224;2023-11-19T08:02:15;11.60;105.18
216;HTU21D;70668;48.81286795;9.14184224;2023-11-19T08:04:46;11.63;105.05
216;HTU21D;70668;48.81286795;9.14184224;2023-11-19T08:07:17;11.69;104.85
216;HTU21D;70668;48.81286795;9.14184224;2023-11-19T08:09:46;11.67;104.81
216;HTU21D;70668;48.81286795;9.14184224;2023-11-19T08:12:14;11.72;104.57
216;HTU21D;70668;48.81286795;9.14184224;2023-11-19T08:14:43;11.74;104.24
216;HTU21D;70668;48.81286795;9.14184224;2023-11-19T08:17:12;11.69;105.12
216;HTU21D;70668;48.81286795;9.14184224;2023-11-19T08:19:41;11.76;104.25
216;HTU21D;70668;48.81286795;9.14184224;2023-11-19T08:22:12;11.77;104.46
216;HTU21D;70668;48.81286795;9.14184224;2023-11-19T08:24:42;11.84;104.15
216;HTU21D;70668;48.81286795;9.14184224;2023-11-19T08:27:11;11.89;104.15
216;HTU21D;70668;48.81286795;9.14184224;2023-11-19T08:29:39;12.14;102.96
216;HTU21D;70668;48.81286795;9.14184224;2023-11-19T08:32:08;12.13;102.73
216;HTU21D;70668;48.81286795;9.14184224;2023-11-19T08:34:36;12.23;102.07
216;HTU21D;70668;48.81286795;9.14184224;2023-11-19T08:37:05;12.20;102.57
216;HTU21D;70668;48.81286795;9.14184224;2023-11-19T08:39:36;12.45;101.54
216;HTU21D;70668;48.81286795;9.14184224;2023-11-19T08:42:06;12.57;101.41
216;HTU21D;70668;48.81286795;9.14184224;2023-11-19T08:44:34;12.69;100.07
216;HTU21D;70668;48.81286795;9.14184224;2023-11-19T08:47:03;12.73;100.41
216;HTU21D;70668;48.81286795;9.14184224;2023-11-19T08:49:32;12.65;99.86
216;HTU21D;70668;48.81286795;9.14184224;2023-11-19T08:52:00;12.61;100.06
216;HTU21D;70668;48.81286795;9.14184224;2023-11-19T08:54:29;12.57;100.29
216;HTU21D;70668;48.81286795;9.14184224;2023-11-19T08:57:01;12.51;100.68
216;HTU21D;70668;48.81286795;9.14184224;2023-11-19T08:59:29;12.48;101.12
216;HTU21D;70668;48.81286795;9.14184224;2023-11-19T09:01:58;12.49;100.51
216;HTU21D;70668;48.81286795;9.14184224;2023-11-19T09:04:27;12.46;101.59
216;HTU21D;70668;48.81286795;9.14184224;2023-11-19T09:06:57;12.56;100.93
216;HTU21D;70668;48.81286795;9.14184224;2023-11-19T09:09:26;12.50;102.12
216;HTU21D;70668;48.81286795;9.14184224;2023-11-19T09:11:54;12.72;100.44
216;HTU21D;70668;48.81286795;9.14184224;2023-11-19T09:14:25;12.88;99.26
216;HTU21D;70668;48.81286795;9.14184224;2023-11-19T09:16:54;12.94;99.00
216;HTU21D;70668;48.81286795;9.14184224;2023-11-19T09:19:22;12.97;97.94
216;HTU21D;70668;48.81286795;9.14184224;2023-11-19T09:21:51;12.82;99.49
216;HTU21D;70668;48.81286795;9.14184224;2023-11-19T09:24:20;12.82;99.39
216;HTU21D;70668;48.81286795;9.14184224;2023-11-19T09:26:48;12.88;98.47
216;HTU21D;70668;48.81286795;9.14184224;2023-11-19T09:29:17;12.82;99.37
216;HTU21D;70668;48.81286795;9.14184224;2023-11-19T09:31:49;12.75;99.71
216;HTU21D;70668;48.81286795;9.14184224;2023-11-19T09:34:18;12.72;99.87
216;HTU21D;70668;48.81286795;9.14184224;2023-11-19T09:36:46;12.76;99.71
216;HTU21D;70668;48.81286795;9.14184224;2023-11-19T09:39:15;12.82;99.57
216;HTU21D;70668;48.81286795;9.14184224;2023-11-19T09:41:44;12.84;99.60
216;HTU21D;70668;48.81286795;9.14184224;2023-11-19T09:44:13;12.81;100.33
216;HTU21D;70668;48.81286795;9.14184224;2023-11-19T09:46:44;12.87;101.41
216;HTU21D;70668;48.81286795;9.14184224;2023-11-19T09:49:21;12.99;101.76
216;HTU21D;70668;48.81286795;9.14184224;2023-11-19T09:51:50;13.21;100.80
216;HTU21D;70668;48.81286795;9.14184224;2023-11-19T09:54:18;13.24;100.18
216;HTU21D;70668;48.81286795;9.14184224;2023-11-19T09:56:47;13.39;96.21
216;HTU21D;70668;48.81286795;9.14184224;2023-11-19T09:59:16;13.49;96.38
216;HTU21D;70668;48.81286795;9.14184224;2023-11-19T10:01:46;13.43;98.00
216;HTU21D;70668;48.81286795;9.14184224;2023-11-19T10:04:19;13.31;99.61
216;HTU21D;70668;48.81286795;9.14184224;2023-11-19T10:06:48;13.43;99.06
216;HTU21D;70668;48.81286795;9.14184224;2023-11-19T10:09:17;13.45;97.72
216;HTU21D;70668;48.81286795;9.14184224;2023-11-19T10:11:46;13.71;97.08
216;HTU21D;70668;48.81286795;9.14184224;2023-11-19T10:14:15;13.98;95.47
216;HTU21D;70668;48.81286795;9.14184224;2023-11-19T10:16:44;13.79;96.07
216;HTU21D;70668;48.81286795;9.14184224;2023-11-19T10:19:21;13.96;90.71
216;HTU21D;70668;48.81286795;9.14184224;2023-11-19T10:21:49;13.98;90.12
216;HTU21D;70668;48.81286795;9.14184224;2023-11-19T10:24:31;14.26;91.17
216;HTU21D;70668;48.81286795;9.14184224;2023-11-19T10:27:00;14.03;91.04
216;HTU21D;70668;48.81286795;9.14184224;2023-11-19T10:29:29;14.23;88.31
216;HTU21D;70668;48.81286795;9.14184224;2023-11-19T10:31:58;14.44;86.33
216;HTU21D;70668;48.81286795;9.14184224;2023-11-19T10:34:29;14.47;87.66
216;HTU21D;70668;48.81286795;9.14184224;2023-11-19T10:36:58;14.50;84.23
216;HTU21D;70668;48.81286795;9.14184224;2023-11-19T10:39:51;14.52;84.07
216;HTU21D;70668;48.81286795;9.14184224;2023-11-19T10:42:21;14.52;86.16
216;HTU21D;70668;48.81286795;9.14184224;2023-11-19T10:44:50;14.63;85.12
216;HTU21D;70668;48.81286795;9.14184224;2023-11-19T10:47:19;14.78;82.12
216;HTU21D;70668;48.81286795;9.14184224;2023-11-19T10:49:50;14.74;83.00
216;HTU21D;70668;48.81286795;9.14184224;2023-11-19T10:52:19;14.84;81.16
216;HTU21D;70668;48.81286795;9.14184224;2023-11-19T10:54:50;14.84;80.46
216;HTU21D;70668;48.81286795;9.14184224;2023-11-19T10:57:20;14.88;79.27
216;HTU21D;70668;48.81286795;9.14184224;2023-11-19T10:59:52;14.80;81.97
216;HTU21D;70668;48.81286795;9.14184224;2023-11-19T11:02:26;14.83;81.60
216;HTU21D;70668;48.81286795;9.14184224;2023-11-19T11:04:59;14.88;78.50
216;HTU21D;70668;48.81286795;9.14184224;2023-11-19T11:07:31;14.87;76.76
216;HTU21D;70668;48.81286795;9.14184224;2023-11-19T11:10:00;14.78;76.66
216;HTU21D;70668;48.81286795;9.14184224;2023-11-19T11:12:33;14.71;79.82
216;HTU21D;70668;48.81286795;9.14184224;2023-11-19T11:15:06;14.65;79.90
216;HTU21D;70668;48.81286795;9.14184224;2023-11-19T11:17:36;14.68;79.04
216;HTU21D;70668;48.81286795;9.14184224;2023-11-19T11:20:11;14.66;79.33
216;HTU21D;70668;48.81286795;9.14184224;2023-11-19T11:22:53;14.63;79.33
216;HTU21D;70668;48.81286795;9.14184224;2023-11-19T11:25:36;14.65;79.09
216;HTU21D;70668;48.81286795;9.14184224;2023-11-19T11:28:18;14.63;78.98
216;HTU21D;70668;48.81286795;9.14184224;2023-11-19T11:31:02;14.55;80.07
216;HTU21D;70668;48.81286795;9.14184224;2023-11-19T11:33:41;14.57;77.85
216;HTU21D;70668;48.81286795;9.14184224;2023-11-19T11:36:20;14.60;77.92
216;HTU21D;70668;48.81286795;9.14184224;2023-11-19T11:38:50;14.55;77.76
216;HTU21D;70668;48.81286795;9.14184224;2023-11-19T11:41:19;14.72;78.71
216;HTU21D;70668;48.81286795;9.14184224;2023-11-19T11:43:49;14.70;77.79
216;HTU21D;70668;48.81286795;9.14184224;2023-11-19T11:49:25;14.56;77.02
216;HTU21D;70668;48.81286795;9.14184224;2023-11-19T11:52:04;14.41;80.38
216;HTU21D;70668;48.81286795;9.14184224;2023-11-19T11:54:34;14.57;76.80
216;HTU21D;70668;48.81286795;9.14184224;2023-11-19T11:57:10;14.56;77.11
216;HTU21D;70668;48.81286795;9.14184224;2023-11-19T11:59:49;14.88;76.94
216;HTU21D;70668;48.81286795;9.14184224;2023-11-19T12:02:19;14.86;75.47
216;HTU21D;70668;48.81286795;9.14184224;2023-11-19T12:04:49;15.36;71.98
216;HTU21D;70668;48.81286795;9.14184224;2023-11-19T12:07:21;15.23;74.77
216;HTU21D;70668;48.81286795;9.14184224;2023-11-19T12:09:52;15.22;74.18
216;HTU21D;70668;48.81286795;9.14184224;2023-11-19T12:12:23;15.24;73.51
216;HTU21D;70668;48.81286795;9.14184224;2023-11-19T12:15:06;15.22;74.64
216;HTU21D;70668;48.81286795;9.14184224;2023-11-19T12:17:50;15.88;72.09
216;HTU21D;70668;48.81286795;9.14184224;2023-11-19T12:20:20;15.69;71.59
216;HTU21D;70668;48.81286795;9.14184224;2023-11-19T12:22:53;15.66;69.43
216;HTU21D;70668;48.81286795;9.14184224;2023-11-19T12:25:21;15.63;67.74
216;HTU21D;70668;48.81286795;9.14184224;2023-11-19T12:27:51;15.55;68.30
216;HTU21D;70668;48.81286795;9.14184224;2023-11-19T12:30:22;15.48;70.78
216;HTU21D;70668;48.81286795;9.14184224;2023-11-19T12:32:52;15.66;62.97
216;HTU21D;70668;48.81286795;9.14184224;2023-11-19T12:35:21;16.08;61.02
216;HTU21D;70668;48.81286795;9.14184224;2023-11-19T12:37:52;16.33;58.35
216;HTU21D;70668;48.81286795;9.14184224;2023-11-19T12:40:22;16.43;60.12
216;HTU21D;70668;48.81286795;9.14184224;2023-11-19T12:42:51;16.25;56.41
216;HTU21D;70668;48.81286795;9.14184224;2023-11-19T12:45:20;16.18;55.43
216;HTU21D;70668;48.81286795;9.14184224;2023-11-19T12:47:50;16.21;55.65
216;HTU21D;70668;48.81286795;9.14184224;2023-11-19T12:50:50;16.05;57.12
216;HTU21D;70668;48.81286795;9.14184224;2023-11-19T12:53:21;15.92;56.29
216;HTU21D;70668;48.81286795;9.14184224;2023-11-19T12:55:50;15.89;57.57
216;HTU21D;70668;48.81286795;9.14184224;2023-11-19T12:58:28;15.82;58.64
216;HTU21D;70668;48.81286795;9.14184224;2023-11-19T13:01:01;15.57;59.34
216;HTU21D;70668;48.81286795;9.14184224;2023-11-19T13:03:31;15.58;59.51
216;HTU21D;70668;48.81286795;9.14184224;2023-11-19T13:06:03;15.36;61.69
216;HTU21D;70668;48.81286795;9.14184224;2023-11-19T13:08:40;15.42;60.05
216;HTU21D;70668;48.81286795;9.14184224;2023-11-19T13:11:10;15.30;64.29
216;HTU21D;70668;48.81286795;9.14184224;2023-11-19T13:13:54;15.39;61.50
216;HTU21D;70668;48.81286795;9.14184224;2023-11-19T13:16:23;15.31;60.24
216;HTU21D;70668;48.81286795;9.14184224;2023-11-19T13:18:52;15.29;60.61
216;HTU21D;70668;48.81286795;9.14184224;2023-11-19T13:21:21;15.21;61.02
216;HTU21D;70668;48.81286795;9.14184224;2023-11-19T13:23:52;15.23;62.01
216;HTU21D;70668;48.81286795;9.14184224;2023-11-19T13:26:20;15.19;62.05
216;HTU21D;70668;48.81286795;9.14184224;2023-11-19T13:28:49;15.19;62.28
216;HTU21D;70668;48.81286795;9.14184224;2023-11-19T13:31:18;14.99;61.15
216;HTU21D;70668;48.81286795;9.14184224;2023-11-19T13:33:46;15.02;62.18
216;HTU21D;70668;48.81286795;9.14184224;2023-11-19T13:36:15;15.04;60.28
216;HTU21D;70668;48.81286795;9.14184224;2023-11-19T13:38:44;14.85;64.71
216;HTU21D;70668;48.81286795;9.14184224;2023-11-19T13:41:15;14.96;62.01
216;HTU21D;70668;48.81286795;9.14184224;2023-11-19T13:43:44;14.83;63.89
216;HTU21D;70668;48.81286795;9.14184224;2023-11-19T13:46:12;14.95;63.63
216;HTU21D;70668;48.81286795;9.14184224;2023-11-19T13:48:40;14.88;64.25